Terminal Aerodrome Forecast
Issued by NWS El Paso, TX

Home | Current Version | Previous Version | Text Only | Print | Product List | Glossary On
Versions: 1 2 3 4 5 6 7 8 9 10 11 12
918
FTUS44 KEPZ 241138
TAFELP
TAF
KELP 241138Z 2412/2512 24012KT P6SM SKC
     FM241600 24018G25KT P6SM SCT250
     FM250300 27018G28KT P6SM FEW250=

USA.gov is the U.S. government's official web portal to all federal, state and local government web resources and services.